Time;durP1;ratioP1;P1;durP2;ratioP2;P2;SDS_P1;SDS_P2;PMS_P1;PMS_P2;Temp;Humidity;BMP_temperature;BMP_pressure;BME280_temperature;BME280_humidity;BME280_pressure;Samples;Min_cycle;Max_cycle;Signal;HPM_P1;HPM_P2
2021/01/10 00:00:36;;;;;;;28.15;16.00;;;2.80;60.80;;;;;;5010347;28;20040;-83
2021/01/10 00:03:03;;;;;;;29.80;16.33;;;2.70;60.70;;;;;;5012590;28;20474;-82
2021/01/10 00:05:32;;;;;;;34.00;17.90;;;2.70;60.60;;;;;;5011579;28;20026;-82
2021/01/10 00:07:58;;;;;;;37.90;21.48;;;2.60;60.50;;;;;;5008546;28;20025;-83
2021/01/10 00:10:25;;;;;;;37.70;21.10;;;2.60;60.60;;;;;;5012759;28;20022;-84
2021/01/10 00:12:51;;;;;;;36.35;20.65;;;2.50;60.70;;;;;;5012859;28;20029;-84
2021/01/10 00:15:18;;;;;;;31.88;18.20;;;2.40;61.00;;;;;;5013195;28;20029;-83
2021/01/10 00:17:46;;;;;;;37.55;20.58;;;2.40;61.10;;;;;;5024161;28;20026;-82
2021/01/10 00:20:13;;;;;;;30.63;18.23;;;2.30;61.10;;;;;;5009653;28;20050;-84
2021/01/10 00:22:39;;;;;;;28.67;17.20;;;2.30;61.00;;;;;;5010821;28;20030;-83
2021/01/10 00:25:07;;;;;;;33.13;19.38;;;2.30;60.90;;;;;;5031877;28;20038;-83
2021/01/10 00:27:33;;;;;;;35.70;19.10;;;2.20;60.70;;;;;;5035190;28;20108;-82
2021/01/10 00:29:59;;;;;;;38.72;20.23;;;2.20;60.70;;;;;;5024889;28;20121;-86
2021/01/10 00:32:25;;;;;;;41.40;22.05;;;2.10;60.70;;;;;;5016742;28;20406;-82
2021/01/10 00:34:51;;;;;;;36.47;19.65;;;2.00;61.00;;;;;;5015079;28;20101;-80
2021/01/10 00:37:21;;;;;;;44.05;23.20;;;2.00;61.30;;;;;;5014382;28;20076;-80
2021/01/10 00:39:48;;;;;;;35.08;18.55;;;2.00;61.70;;;;;;5010967;28;20022;-84
2021/01/10 00:42:15;;;;;;;40.20;20.92;;;2.00;61.80;;;;;;5014962;28;20439;-84
2021/01/10 00:44:43;;;;;;;36.33;19.65;;;2.00;61.90;;;;;;5015466;28;20026;-81
2021/01/10 00:47:10;;;;;;;34.40;17.55;;;1.90;61.70;;;;;;5015577;28;20022;-83
2021/01/10 00:49:36;;;;;;;32.65;18.05;;;1.90;61.70;;;;;;5014795;28;20061;-81
2021/01/10 00:52:04;;;;;;;29.33;17.20;;;1.90;61.60;;;;;;5016076;28;20034;-83
2021/01/10 00:54:30;;;;;;;36.10;18.60;;;1.80;61.70;;;;;;5015983;28;20107;-83
2021/01/10 00:56:57;;;;;;;34.88;17.55;;;1.80;61.80;;;;;;5014976;28;20491;-82
2021/01/10 00:59:24;;;;;;;34.10;18.67;;;1.80;61.70;;;;;;5013127;28;20038;-82
2021/01/10 01:01:50;;;;;;;36.67;19.65;;;1.70;61.70;;;;;;5012596;28;20598;-83
2021/01/10 01:04:17;;;;;;;37.22;20.92;;;1.70;61.70;;;;;;5012864;28;20033;-83
2021/01/10 01:06:42;;;;;;;33.65;18.00;;;1.70;61.80;;;;;;5015408;28;20036;-82
2021/01/10 01:09:08;;;;;;;33.63;16.00;;;1.70;61.80;;;;;;5014447;28;20030;-81
2021/01/10 01:11:37;;;;;;;26.10;15.43;;;1.60;61.80;;;;;;5014307;28;20026;-82
2021/01/10 01:14:04;;;;;;;35.30;17.60;;;1.60;61.80;;;;;;5015721;28;20422;-83
2021/01/10 01:16:30;;;;;;;32.42;17.73;;;1.60;61.90;;;;;;5014459;28;20018;-83
2021/01/10 01:18:56;;;;;;;27.55;15.35;;;1.60;61.90;;;;;;5015335;28;20030;-81
2021/01/10 01:21:22;;;;;;;31.70;17.38;;;1.50;62.00;;;;;;5011829;28;20523;-81
2021/01/10 01:23:49;;;;;;;30.77;16.95;;;1.50;62.20;;;;;;5012348;28;20116;-82
2021/01/10 01:26:22;;;;;;;34.05;19.90;;;1.50;62.30;;;;;;5013199;28;20109;-81
2021/01/10 01:28:49;;;;;;;;;;;1.50;62.30;;;;;;5015431;28;20499;-82
2021/01/10 01:31:20;;;;;;;22.65;12.77;;;1.50;62.10;;;;;;5014784;28;19909;-80
2021/01/10 01:33:47;;;;;;;30.30;15.45;;;1.50;61.90;;;;;;5014287;28;20394;-82
2021/01/10 01:36:18;;;;;;;29.85;15.77;;;1.40;61.80;;;;;;5014621;28;20364;-82
2021/01/10 01:38:45;;;;;;;25.95;14.50;;;1.40;61.80;;;;;;5015090;28;20026;-82
2021/01/10 01:41:12;;;;;;;23.10;13.20;;;1.40;61.70;;;;;;5014888;28;20041;-82
2021/01/10 01:43:39;;;;;;;27.40;14.02;;;1.40;61.70;;;;;;5010383;28;20040;-82
2021/01/10 01:46:08;;;;;;;26.77;15.07;;;1.40;61.70;;;;;;4993596;28;20026;-81
2021/01/10 01:48:36;;;;;;;29.35;15.15;;;1.30;61.60;;;;;;4994465;28;20498;-82
2021/01/10 01:51:03;;;;;;;25.10;14.38;;;1.30;61.70;;;;;;5009368;28;20122;-83
2021/01/10 01:53:29;;;;;;;33.13;18.42;;;1.20;61.70;;;;;;5014328;28;20037;-83
2021/01/10 01:55:57;;;;;;;27.00;15.30;;;1.20;61.80;;;;;;5030264;28;20057;-81
2021/01/10 01:58:24;;;;;;;31.15;18.27;;;1.20;61.90;;;;;;5014718;28;20034;-82
2021/01/10 02:00:50;;;;;;;36.33;18.63;;;1.20;62.00;;;;;;5014659;28;20030;-83
2021/01/10 02:03:46;;;;;;;31.48;18.13;;;1.10;62.00;;;;;;5015051;28;20474;-83
2021/01/10 02:06:20;;;;;;;34.03;18.67;;;1.10;62.20;;;;;;4992824;28;20054;-81
2021/01/10 02:08:51;;;;;;;30.70;17.30;;;1.10;62.30;;;;;;4991177;28;20550;-83
2021/01/10 02:11:18;;;;;;;41.28;20.92;;;1.10;62.60;;;;;;4991533;28;20515;-82
2021/01/10 02:13:47;;;;;;;49.47;20.95;;;1.10;62.80;;;;;;4992556;28;20474;-82
2021/01/10 02:16:15;;;;;;;45.85;23.10;;;1.20;63.10;;;;;;4992672;28;20181;-82
2021/01/10 02:18:42;;;;;;;45.85;21.48;;;1.20;63.40;;;;;;4976708;28;20035;-83
2021/01/10 02:21:09;;;;;;;36.40;17.63;;;1.20;63.40;;;;;;4992625;28;20089;-82
2021/01/10 02:23:40;;;;;;;40.30;19.92;;;1.30;63.30;;;;;;4976398;28;20519;-81
2021/01/10 02:26:06;;;;;;;36.85;19.17;;;1.30;63.20;;;;;;4976432;28;20483;-81
2021/01/10 02:28:33;;;;;;;40.50;21.00;;;1.30;63.00;;;;;;4969619;28;20089;-82
2021/01/10 02:31:00;;;;;;;37.33;19.13;;;1.30;63.00;;;;;;4990365;28;20113;-83
2021/01/10 02:33:47;;;;;;;45.55;21.20;;;1.40;63.10;;;;;;4991488;28;20490;-83
2021/01/10 02:36:21;;;;;;;49.75;21.75;;;1.40;63.30;;;;;;4975576;28;20042;-83
2021/01/10 02:38:54;;;;;;;;;;;1.40;63.30;;;;;;4992851;28;20058;-82
2021/01/10 02:41:43;;;;;;;74.03;27.88;;;1.50;63.20;;;;;;4992098;28;19913;-83
2021/01/10 02:44:20;;;;;;;66.45;25.33;;;1.50;63.60;;;;;;5009442;28;20022;-82
2021/01/10 02:46:50;;;;;;;55.28;25.15;;;1.50;63.80;;;;;;4992681;28;20042;-82
2021/01/10 02:49:18;;;;;;;48.97;22.55;;;1.60;63.80;;;;;;4999555;28;20021;-81
2021/01/10 02:51:44;;;;;;;52.30;21.52;;;1.60;63.80;;;;;;5012212;28;20072;-82
2021/01/10 02:54:12;;;;;;;47.97;20.60;;;1.60;63.70;;;;;;5011562;28;20029;-83
2021/01/10 02:56:51;;;;;;;53.67;23.85;;;1.70;63.60;;;;;;5013391;28;20029;-83
2021/01/10 02:59:24;;;;;;;49.13;22.08;;;1.70;63.60;;;;;;5013297;28;20032;-83
2021/01/10 03:01:51;;;;;;;37.38;17.35;;;1.70;63.30;;;;;;5012214;28;20029;-83
2021/01/10 03:04:18;;;;;;;41.10;19.70;;;1.70;63.10;;;;;;5013703;28;20030;-82
2021/01/10 03:06:45;;;;;;;43.35;19.40;;;1.70;62.90;;;;;;5012402;28;20030;-83
2021/01/10 03:09:12;;;;;;;50.95;24.10;;;1.70;62.70;;;;;;5012178;28;20029;-81
2021/01/10 03:11:40;;;;;;;49.80;23.25;;;1.70;62.60;;;;;;5007152;28;20033;-82
2021/01/10 03:14:06;;;;;;;46.80;23.65;;;1.70;62.50;;;;;;5011364;28;20030;-84
2021/01/10 03:16:33;;;;;;;47.70;22.75;;;1.70;62.40;;;;;;5012512;28;20041;-82
2021/01/10 03:18:59;;;;;;;47.20;23.05;;;1.70;62.50;;;;;;5013090;28;20026;-83
2021/01/10 03:21:24;;;;;;;46.80;23.70;;;1.60;62.30;;;;;;5012745;28;20045;-82
2021/01/10 03:23:50;;;;;;;49.20;22.60;;;1.60;62.30;;;;;;5011869;28;20037;-83
2021/01/10 03:26:16;;;;;;;46.38;21.20;;;1.60;62.30;;;;;;5012074;28;20049;-83
2021/01/10 03:28:41;;;;;;;46.30;21.63;;;1.60;62.30;;;;;;5011973;28;20030;-82
2021/01/10 03:31:09;;;;;;;46.40;22.27;;;1.60;62.30;;;;;;5013328;28;20026;-84
2021/01/10 03:33:35;;;;;;;62.58;26.50;;;1.60;62.40;;;;;;5007127;28;20088;-82
2021/01/10 03:36:01;;;;;;;54.67;24.17;;;1.50;62.30;;;;;;5010048;28;20479;-83
2021/01/10 03:38:29;;;;;;;50.40;22.65;;;1.60;62.30;;;;;;5010978;28;20026;-83
2021/01/10 03:40:54;;;;;;;54.15;24.33;;;1.50;62.40;;;;;;5006373;28;20029;-82
2021/01/10 03:43:20;;;;;;;39.28;19.83;;;1.50;62.50;;;;;;5008654;28;20026;-82
2021/01/10 03:45:46;;;;;;;45.10;21.45;;;1.50;62.40;;;;;;5008741;28;20125;-82
2021/01/10 03:48:12;;;;;;;51.05;24.00;;;1.50;62.30;;;;;;5010444;28;20062;-81
2021/01/10 03:50:37;;;;;;;48.70;22.15;;;1.50;62.20;;;;;;5011947;28;20541;-83
2021/01/10 03:53:03;;;;;;;47.00;22.88;;;1.40;62.10;;;;;;5008148;28;20038;-83
2021/01/10 03:55:29;;;;;;;55.92;25.55;;;1.40;62.10;;;;;;5026821;28;20054;-82
2021/01/10 03:57:54;;;;;;;46.85;22.25;;;1.40;62.00;;;;;;5002337;28;20387;-81
2021/01/10 04:00:20;;;;;;;44.38;21.92;;;1.30;61.90;;;;;;5014766;28;20079;-82
2021/01/10 04:02:46;;;;;;;47.83;22.73;;;1.30;61.90;;;;;;5006543;28;20026;-84
2021/01/10 04:05:12;;;;;;;47.08;22.40;;;1.30;62.10;;;;;;5009422;28;20529;-83
2021/01/10 04:07:38;;;;;;;40.15;18.65;;;1.20;62.10;;;;;;4999268;28;20044;-82
2021/01/10 04:10:04;;;;;;;46.05;23.80;;;1.20;62.10;;;;;;5014103;28;20054;-81
2021/01/10 04:12:30;;;;;;;47.25;23.08;;;1.10;62.10;;;;;;5007657;28;20026;-81
2021/01/10 04:14:56;;;;;;;42.10;20.80;;;1.10;62.10;;;;;;5007579;28;20030;-81
2021/01/10 04:17:25;;;;;;;37.38;18.88;;;1.10;62.20;;;;;;5014515;28;20037;-82
2021/01/10 04:19:55;;;;;;;38.17;18.50;;;1.10;62.20;;;;;;5002186;28;20064;-80
2021/01/10 04:22:22;;;;;;;36.88;18.70;;;1.10;62.30;;;;;;5021948;28;20033;-81
2021/01/10 04:24:48;;;;;;;42.15;21.05;;;1.10;62.40;;;;;;5025100;28;20026;-83
2021/01/10 04:27:13;;;;;;;43.72;21.92;;;1.10;62.30;;;;;;5051986;28;20033;-80
2021/01/10 04:29:39;;;;;;;44.17;21.67;;;1.10;62.20;;;;;;5021238;28;20387;-80
2021/01/10 04:32:05;;;;;;;42.83;20.27;;;1.00;62.10;;;;;;5033046;28;20136;-80
2021/01/10 04:34:31;;;;;;;38.67;19.13;;;1.10;62.10;;;;;;5032579;28;20025;-81
2021/01/10 04:36:57;;;;;;;34.95;18.58;;;1.00;62.20;;;;;;5033620;28;20029;-81
2021/01/10 04:39:23;;;;;;;43.33;21.77;;;1.00;62.30;;;;;;5034892;28;20022;-79
2021/01/10 04:41:49;;;;;;;42.80;21.02;;;1.10;62.60;;;;;;5035417;28;20042;-81
2021/01/10 04:44:15;;;;;;;55.28;22.92;;;1.10;62.40;;;;;;5034333;28;20021;-81
2021/01/10 04:46:41;;;;;;;53.85;22.33;;;1.10;62.20;;;;;;5050157;28;20036;-83
2021/01/10 04:49:07;;;;;;;56.70;22.77;;;1.10;62.00;;;;;;5041783;28;20075;-82
2021/01/10 04:51:36;;;;;;;53.00;22.70;;;1.10;61.90;;;;;;5037425;28;20040;-80
2021/01/10 04:54:03;;;;;;;55.85;23.25;;;1.20;61.80;;;;;;5028837;28;20058;-81
2021/01/10 04:56:30;;;;;;;51.33;20.90;;;1.20;61.70;;;;;;5016014;28;20033;-83
2021/01/10 04:59:04;;;;;;;61.45;26.23;;;1.20;61.70;;;;;;5016037;28;20517;-81
2021/01/10 05:01:54;;;;;;;48.88;21.42;;;1.20;61.90;;;;;;5015118;28;20030;-82
2021/01/10 05:04:21;;;;;;;58.83;24.42;;;1.20;62.10;;;;;;5015242;28;20088;-83
2021/01/10 05:06:47;;;;;;;69.32;29.30;;;1.30;62.20;;;;;;5015863;28;20029;-82
2021/01/10 05:09:13;;;;;;;77.78;29.65;;;1.30;62.50;;;;;;5015546;28;20534;-81
2021/01/10 05:11:39;;;;;;;73.53;28.33;;;1.30;62.60;;;;;;5014056;28;20107;-81
2021/01/10 05:14:04;;;;;;;66.57;26.88;;;1.40;62.70;;;;;;5015799;28;20065;-83
2021/01/10 05:16:32;;;;;;;68.50;29.00;;;1.40;62.60;;;;;;5014465;28;20026;-82
2021/01/10 05:18:59;;;;;;;70.97;28.30;;;1.30;62.40;;;;;;5031093;28;20076;-81
2021/01/10 05:21:25;;;;;;;61.38;25.05;;;1.30;62.50;;;;;;5013678;28;20542;-82
2021/01/10 05:23:56;;;;;;;55.20;25.42;;;1.30;62.50;;;;;;5014340;28;20041;-82
2021/01/10 05:26:22;;;;;;;51.45;24.17;;;1.30;62.50;;;;;;5015418;28;20032;-83
2021/01/10 05:28:50;;;;;;;64.07;27.08;;;1.20;62.40;;;;;;5030636;28;20057;-81
2021/01/10 05:31:41;;;;;;;54.08;24.70;;;1.10;62.20;;;;;;5014945;28;20033;-82
2021/01/10 05:34:12;;;;;;;60.03;27.35;;;1.10;62.20;;;;;;5030409;28;20029;-82
2021/01/10 05:36:40;;;;;;;56.85;25.67;;;1.10;62.00;;;;;;5015306;28;20029;-83
2021/01/10 05:39:25;;;;;;;50.00;22.98;;;1.00;62.00;;;;;;5015648;28;20097;-83
2021/01/10 05:41:57;;;;;;;48.38;22.05;;;1.00;62.10;;;;;;5029345;28;20463;-83
2021/01/10 05:44:28;;;;;;;43.40;19.90;;;1.00;62.20;;;;;;5009232;28;20033;-83
2021/01/10 05:47:05;;;;;;;43.08;17.58;;;0.90;62.10;;;;;;4995369;28;20496;-83
2021/01/10 05:49:31;;;;;;;49.53;21.98;;;0.90;62.20;;;;;;4995293;28;20027;-83
2021/01/10 05:52:07;;;;;;;52.95;24.30;;;0.90;62.30;;;;;;4995427;28;20042;-81
2021/01/10 05:54:43;;;;;;;40.63;19.90;;;0.90;62.50;;;;;;4994041;28;20034;-81
2021/01/10 05:57:15;;;;;;;50.05;22.02;;;0.90;62.60;;;;;;4995495;28;20029;-83
2021/01/10 05:59:52;;;;;;;54.05;24.33;;;0.90;62.70;;;;;;4995200;28;20018;-82
2021/01/10 06:02:34;;;;;;;58.58;25.73;;;1.00;62.80;;;;;;4995413;28;20072;-80
2021/01/10 06:05:10;;;;;;;47.65;22.65;;;1.00;62.70;;;;;;4995837;28;20030;-83
2021/01/10 06:07:36;;;;;;;54.83;23.95;;;1.00;62.70;;;;;;5014738;28;20430;-82
2021/01/10 06:10:04;;;;;;;43.50;19.85;;;1.00;62.80;;;;;;5014603;28;20033;-81
2021/01/10 06:12:29;;;;;;;52.72;24.70;;;1.10;62.80;;;;;;5014971;28;20488;-82
2021/01/10 06:15:30;;;;;;;53.03;24.83;;;1.10;62.80;;;;;;5014454;28;20038;-82
2021/01/10 06:18:01;;;;;;;46.38;21.25;;;1.10;62.70;;;;;;4957191;28;20027;-83
2021/01/10 06:20:28;;;;;;;43.47;20.58;;;1.10;62.60;;;;;;4972558;28;20047;-82
2021/01/10 06:22:56;;;;;;;38.80;19.27;;;1.20;62.50;;;;;;4973328;28;20038;-84
2021/01/10 06:25:24;;;;;;;39.20;18.45;;;1.20;62.40;;;;;;4973433;28;20034;-83
2021/01/10 06:28:11;;;;;;;44.13;21.67;;;1.30;62.50;;;;;;4973031;28;20058;-82
2021/01/10 06:30:47;;;;;;;36.05;17.42;;;1.30;62.30;;;;;;4972892;28;20030;-83
2021/01/10 06:33:16;;;;;;;45.60;21.23;;;1.30;62.20;;;;;;4973079;28;20538;-83
2021/01/10 06:35:43;;;;;;;42.28;21.60;;;1.40;62.10;;;;;;4956750;28;20039;-83
2021/01/10 06:38:11;;;;;;;54.33;25.48;;;1.40;61.90;;;;;;4973098;28;20023;-84
2021/01/10 06:40:39;;;;;;;48.30;22.83;;;1.40;61.80;;;;;;4956683;28;20035;-83
2021/01/10 06:43:08;;;;;;;50.08;24.08;;;1.40;61.70;;;;;;4972966;28;20030;-83
2021/01/10 06:45:43;;;;;;;49.78;23.42;;;1.40;61.60;;;;;;4953638;29;20496;-83
2021/01/10 06:48:09;;;;;;;46.95;22.50;;;1.40;61.50;;;;;;4953595;29;20583;-82
2021/01/10 06:50:44;;;;;;;48.90;22.77;;;1.40;61.50;;;;;;4970559;28;20030;-83
2021/01/10 06:53:13;;;;;;;45.20;21.05;;;1.40;61.40;;;;;;4975460;28;20125;-83
2021/01/10 06:55:44;;;;;;;47.28;22.75;;;1.40;61.40;;;;;;5012531;28;20022;-82
2021/01/10 06:58:10;;;;;;;46.78;22.23;;;1.50;61.50;;;;;;5013776;28;20025;-82
2021/01/10 07:00:56;;;;;;;40.22;19.33;;;1.50;62.20;;;;;;5013743;28;20491;-83
2021/01/10 07:03:23;;;;;;;41.38;18.67;;;1.60;61.50;;;;;;5013638;28;20030;-83
2021/01/10 07:06:01;;;;;;;61.78;25.02;;;1.60;61.60;;;;;;5012220;28;20084;-83
2021/01/10 07:08:39;;;;;;;74.20;30.33;;;1.70;61.50;;;;;;5012311;28;20095;-83
2021/01/10 07:11:23;;;;;;;57.17;24.45;;;1.70;61.30;;;;;;5013593;28;20105;-83
2021/01/10 07:14:11;;;;;;;46.03;23.08;;;1.70;61.20;;;;;;5013425;28;20026;-83
2021/01/10 07:16:38;;;;;;;41.35;20.42;;;1.80;61.00;;;;;;5013443;28;20081;-82
2021/01/10 07:19:09;;;;;;;44.17;21.77;;;1.80;60.90;;;;;;5013751;28;20025;-83
2021/01/10 07:21:35;;;;;;;43.67;19.83;;;1.80;60.70;;;;;;5012844;28;20462;-82
2021/01/10 07:24:13;;;;;;;49.42;22.63;;;1.90;61.50;;;;;;5013368;28;20034;-84
2021/01/10 07:26:41;;;;;;;41.42;20.63;;;1.90;60.60;;;;;;5012203;28;20022;-82
2021/01/10 07:29:29;;;;;;;38.95;19.88;;;2.00;60.60;;;;;;5013339;28;20033;-83
2021/01/10 07:32:12;;;;;;;39.78;20.48;;;2.00;60.50;;;;;;4992916;28;20410;-83
2021/01/10 07:34:44;;;;;;;43.97;21.05;;;2.10;60.50;;;;;;4993211;28;20030;-82
2021/01/10 07:37:24;;;;;;;37.47;19.60;;;2.10;60.40;;;;;;5013131;28;20026;-84
2021/01/10 07:39:59;;;;;;;40.15;19.73;;;2.20;60.40;;;;;;5028404;28;20018;-82
2021/01/10 07:42:29;;;;;;;45.88;22.98;;;2.20;60.20;;;;;;5013162;28;20471;-83
2021/01/10 07:44:59;;;;;;;45.50;21.50;;;2.20;60.00;;;;;;5013097;28;20471;-80
2021/01/10 07:47:34;;;;;;;41.88;20.02;;;2.20;60.00;;;;;;5011937;28;20030;-82
2021/01/10 07:50:18;;;;;;;38.65;19.63;;;2.30;60.00;;;;;;5013049;28;20030;-81
2021/01/10 07:52:45;;;;;;;41.67;20.10;;;2.30;59.90;;;;;;5011774;28;20033;-82
2021/01/10 07:55:18;;;;;;;41.30;21.08;;;2.40;59.90;;;;;;5028073;28;20041;-83
2021/01/10 07:57:50;;;;;;;48.45;22.83;;;2.40;59.80;;;;;;5013341;28;20101;-84
2021/01/10 08:00:23;;;;;;;40.28;21.02;;;2.40;59.70;;;;;;5028361;28;20025;-82
2021/01/10 08:02:54;;;;;;;47.35;21.95;;;2.50;59.60;;;;;;5012553;28;20025;-84
2021/01/10 08:05:28;;;;;;;42.45;19.95;;;2.50;59.50;;;;;;5011639;28;20026;-83
2021/01/10 08:07:59;;;;;;;34.13;18.25;;;2.50;59.40;;;;;;5013088;28;20092;-83
2021/01/10 08:10:44;;;;;;;33.50;17.27;;;2.50;59.30;;;;;;5028203;28;20113;-82
2021/01/10 08:13:28;;;;;;;34.75;18.48;;;2.50;59.10;;;;;;5027931;28;20026;-83
2021/01/10 08:16:02;;;;;;;37.03;19.58;;;2.60;59.10;;;;;;5012700;28;20037;-84
2021/01/10 08:18:34;;;;;;;36.92;19.10;;;2.60;59.20;;;;;;5012877;28;20122;-84
2021/01/10 08:21:01;;;;;;;38.47;19.58;;;2.60;59.10;;;;;;5027863;28;20128;-83
2021/01/10 08:23:27;;;;;;;39.22;20.70;;;2.70;59.20;;;;;;5012736;28;20033;-84
2021/01/10 08:26:10;;;;;;;41.00;20.13;;;2.70;59.10;;;;;;5012764;28;20121;-83
2021/01/10 08:28:54;;;;;;;40.40;20.42;;;2.80;58.90;;;;;;5012702;28;20407;-82
2021/01/10 08:31:23;;;;;;;39.40;19.83;;;2.80;58.80;;;;;;5012965;28;20026;-82
2021/01/10 08:34:05;;;;;;;39.97;19.38;;;2.80;58.60;;;;;;5012563;28;20045;-83
2021/01/10 08:36:32;;;;;;;38.08;19.08;;;2.80;58.50;;;;;;5011633;28;20030;-84
2021/01/10 08:39:06;;;;;;;38.88;19.90;;;2.80;58.50;;;;;;5012770;28;20026;-82
2021/01/10 08:41:41;;;;;;;35.95;18.17;;;2.90;58.60;;;;;;5012781;28;20049;-83
2021/01/10 08:44:10;;;;;;;41.78;20.50;;;2.90;58.60;;;;;;5008345;28;20027;-83
2021/01/10 08:46:42;;;;;;;41.40;20.33;;;2.90;58.50;;;;;;4999808;28;20026;-84
2021/01/10 08:49:09;;;;;;;42.58;20.17;;;3.00;58.40;;;;;;5016241;28;20088;-83
2021/01/10 08:51:44;;;;;;;48.60;22.92;;;3.00;58.40;;;;;;5031347;28;20490;-82
2021/01/10 08:54:16;;;;;;;42.83;20.88;;;3.00;58.30;;;;;;5016344;28;20025;-83
2021/01/10 08:56:44;;;;;;;41.50;20.63;;;3.10;58.40;;;;;;5015945;28;20057;-82
2021/01/10 08:59:11;;;;;;;40.15;19.73;;;3.10;58.40;;;;;;5016091;28;20026;-82
2021/01/10 09:01:38;;;;;;;42.42;20.40;;;3.20;58.60;;;;;;5014644;28;20421;-83
2021/01/10 09:04:14;;;;;;;52.53;23.88;;;3.30;58.70;;;;;;5015286;28;20061;-82
2021/01/10 09:07:05;;;;;;;48.92;23.52;;;3.40;58.60;;;;;;5031075;28;20030;-84
2021/01/10 09:09:31;;;;;;;51.97;24.52;;;3.50;58.70;;;;;;5025576;28;20495;-82
2021/01/10 09:12:20;;;;;;;55.55;25.10;;;3.60;58.80;;;;;;5025563;28;20022;-82
2021/01/10 09:15:28;;;;;;;64.28;26.88;;;3.60;58.70;;;;;;5025383;28;20034;-82
2021/01/10 09:18:17;;;;;;;62.72;26.67;;;3.80;58.60;;;;;;5025800;28;20051;-81
2021/01/10 09:21:16;;;;;;;71.93;26.55;;;3.90;58.50;;;;;;5018599;28;20041;-82
2021/01/10 09:23:55;;;;;;;54.80;23.88;;;4.00;58.50;;;;;;4958170;28;20035;-81
2021/01/10 09:26:29;;;;;;;65.80;28.17;;;4.10;58.40;;;;;;4974431;28;20035;-82
2021/01/10 09:28:57;;;;;;;73.85;30.70;;;4.20;58.30;;;;;;4974672;28;20065;-82
2021/01/10 09:31:41;;;;;;;75.80;31.70;;;4.30;58.30;;;;;;4974472;28;20035;-81
2021/01/10 09:34:08;;;;;;;;;;;4.40;58.10;;;;;;4959086;28;20035;-82
2021/01/10 09:36:34;;;;;;;98.25;36.90;;;4.50;58.40;;;;;;4958350;28;20002;-81
2021/01/10 09:39:00;;;;;;;97.40;38.17;;;4.50;57.70;;;;;;4974872;28;20035;-82
2021/01/10 09:41:28;;;;;;;90.00;36.35;;;4.60;57.50;;;;;;4974456;28;20117;-81
2021/01/10 09:43:56;;;;;;;93.90;37.65;;;4.60;57.60;;;;;;4958259;28;20030;-82
2021/01/10 09:46:28;;;;;;;95.55;36.80;;;4.70;57.60;;;;;;4974308;28;20055;-83
2021/01/10 09:48:57;;;;;;;97.18;39.55;;;4.80;57.70;;;;;;4977292;28;20039;-83
2021/01/10 09:51:23;;;;;;;86.63;38.17;;;4.90;57.50;;;;;;4993359;28;20035;-82
2021/01/10 09:53:50;;;;;;;105.55;41.70;;;5.00;57.50;;;;;;4961479;28;20077;-82
2021/01/10 09:56:37;;;;;;;115.88;42.55;;;5.10;57.50;;;;;;4973429;28;20082;-83
2021/01/10 09:59:04;;;;;;;126.20;43.65;;;5.10;57.30;;;;;;4979098;28;20486;-83
2021/01/10 10:01:37;;;;;;;132.73;46.00;;;5.20;57.00;;;;;;5012899;28;20382;-83
2021/01/10 10:04:06;;;;;;;130.68;48.35;;;5.30;56.90;;;;;;5013042;28;20057;-82
2021/01/10 10:06:53;;;;;;;133.38;46.35;;;5.30;56.50;;;;;;5013076;28;20422;-82
2021/01/10 10:09:19;;;;;;;133.07;47.92;;;5.30;56.40;;;;;;5013220;28;20398;-83
2021/01/10 10:11:46;;;;;;;117.00;43.70;;;5.40;56.30;;;;;;5012989;28;20191;-83
2021/01/10 10:14:14;;;;;;;106.35;41.42;;;5.30;56.20;;;;;;5014077;28;20108;-83
2021/01/10 10:16:41;;;;;;;103.32;41.92;;;5.40;56.20;;;;;;5014572;28;20025;-82
2021/01/10 10:19:10;;;;;;;94.93;37.42;;;5.40;56.10;;;;;;5013130;28;20057;-83
2021/01/10 10:21:47;;;;;;;101.00;40.53;;;5.50;56.40;;;;;;5014503;28;20042;-82
2021/01/10 10:24:15;;;;;;;111.28;44.75;;;5.50;56.40;;;;;;5013112;28;20430;-83
2021/01/10 10:26:42;;;;;;;107.63;42.55;;;5.60;56.30;;;;;;5014329;28;20022;-82
2021/01/10 10:29:09;;;;;;;117.93;42.95;;;5.70;56.10;;;;;;5012859;28;20029;-82
2021/01/10 10:31:34;;;;;;;98.20;38.45;;;5.80;56.20;;;;;;5013123;28;20383;-83
2021/01/10 10:34:00;;;;;;;133.10;54.63;;;5.90;56.00;;;;;;5013721;28;20034;-82
2021/01/10 10:36:26;;;;;;;105.30;42.85;;;6.00;56.00;;;;;;5013954;28;20029;-82
2021/01/10 10:38:51;;;;;;;110.00;41.22;;;6.10;56.00;;;;;;5014990;28;20026;-82
2021/01/10 10:41:18;;;;;;;105.85;41.83;;;6.20;56.00;;;;;;5013967;28;20398;-82
2021/01/10 10:43:44;;;;;;;115.55;44.50;;;6.30;55.90;;;;;;5015173;28;20022;-82
2021/01/10 10:46:11;;;;;;;113.65;43.28;;;6.40;55.40;;;;;;5014780;28;20026;-82
2021/01/10 10:48:36;;;;;;;108.20;42.88;;;6.40;55.30;;;;;;5014431;28;20026;-82
2021/01/10 10:51:02;;;;;;;93.10;38.55;;;6.50;55.00;;;;;;5015092;28;20030;-82
2021/01/10 10:53:28;;;;;;;97.30;39.90;;;6.60;55.00;;;;;;5014496;28;20041;-82
2021/01/10 10:55:54;;;;;;;92.90;38.33;;;6.70;54.80;;;;;;5014628;28;20022;-83
2021/01/10 10:58:20;;;;;;;81.20;34.70;;;6.80;54.50;;;;;;5013488;28;20048;-83
2021/01/10 11:00:46;;;;;;;81.50;34.85;;;6.80;54.40;;;;;;5015049;28;20025;-82
2021/01/10 11:03:12;;;;;;;69.18;29.90;;;6.90;54.50;;;;;;5014439;28;20490;-83
2021/01/10 11:05:38;;;;;;;76.13;34.10;;;6.90;54.50;;;;;;5013551;28;20049;-81
2021/01/10 11:08:04;;;;;;;68.10;30.27;;;7.00;53.90;;;;;;5030415;28;20018;-82
2021/01/10 11:10:30;;;;;;;65.38;29.88;;;7.00;53.50;;;;;;5014789;28;20026;-82
2021/01/10 11:12:56;;;;;;;61.78;29.20;;;7.00;53.60;;;;;;5014854;28;20025;-81
2021/01/10 11:15:22;;;;;;;65.57;31.27;;;7.00;53.10;;;;;;5013705;28;20026;-81
2021/01/10 11:17:48;;;;;;;59.67;29.48;;;6.90;52.70;;;;;;5015052;28;20033;-80
2021/01/10 11:20:14;;;;;;;54.90;26.88;;;6.90;52.70;;;;;;5013010;28;20038;-80
2021/01/10 11:22:41;;;;;;;67.30;30.40;;;6.70;52.30;;;;;;5014271;28;20036;-82
2021/01/10 11:25:07;;;;;;;56.85;26.48;;;6.60;52.30;;;;;;5013873;28;20462;-83
2021/01/10 11:27:33;;;;;;;62.90;29.40;;;6.40;52.30;;;;;;5012759;28;20084;-83
2021/01/10 11:29:59;;;;;;;55.45;26.42;;;6.30;52.40;;;;;;5009146;28;20038;-82
2021/01/10 11:32:25;;;;;;;58.28;28.55;;;6.20;52.80;;;;;;5003328;28;20022;-82
2021/01/10 11:34:50;;;;;;;59.25;26.75;;;6.10;53.10;;;;;;5012110;28;20386;-81
2021/01/10 11:37:16;;;;;;;51.47;24.63;;;6.00;53.40;;;;;;5012128;28;20474;-82
2021/01/10 11:39:42;;;;;;;56.13;25.27;;;6.00;53.70;;;;;;5029038;28;20036;-83
2021/01/10 11:42:13;;;;;;;69.88;28.10;;;6.00;53.80;;;;;;5014051;28;20022;-82
2021/01/10 11:44:39;;;;;;;81.75;28.83;;;5.90;53.90;;;;;;5009241;28;20125;-82
2021/01/10 11:47:05;;;;;;;55.47;25.52;;;5.90;53.90;;;;;;4995315;28;20023;-83
2021/01/10 11:49:31;;;;;;;57.47;26.77;;;6.00;54.10;;;;;;5014543;28;20140;-82
2021/01/10 11:51:57;;;;;;;68.07;28.35;;;6.00;54.10;;;;;;5002025;28;20061;-81
2021/01/10 11:54:24;;;;;;;56.85;27.05;;;6.00;53.90;;;;;;4992894;28;20455;-83
2021/01/10 11:56:50;;;;;;;47.72;23.80;;;6.00;53.70;;;;;;5009924;28;20022;-83
2021/01/10 11:59:20;;;;;;;50.08;23.17;;;6.10;53.80;;;;;;5009359;28;20471;-82
2021/01/10 12:01:47;;;;;;;52.67;25.75;;;6.10;53.80;;;;;;5000813;28;20023;-82
2021/01/10 12:04:13;;;;;;;57.90;27.55;;;6.10;53.80;;;;;;4998792;28;20026;-83
2021/01/10 12:06:40;;;;;;;63.25;28.25;;;6.20;54.00;;;;;;5014463;28;20057;-82
2021/01/10 12:09:11;;;;;;;75.00;32.10;;;6.20;53.70;;;;;;5029497;28;20132;-82
2021/01/10 12:11:38;;;;;;;65.60;29.90;;;6.10;53.30;;;;;;5028833;28;20038;-81
2021/01/10 12:14:04;;;;;;;75.65;30.42;;;6.20;53.50;;;;;;5013827;28;20029;-82
2021/01/10 12:16:30;;;;;;;57.08;27.30;;;6.20;53.70;;;;;;5012956;28;20106;-83
2021/01/10 12:18:56;;;;;;;63.90;28.40;;;6.10;53.70;;;;;;5013799;28;20105;-82
2021/01/10 12:21:21;;;;;;;60.25;25.40;;;6.20;53.70;;;;;;5017884;28;20438;-82
2021/01/10 12:23:47;;;;;;;66.90;30.63;;;6.20;54.40;;;;;;5017625;28;20072;-83
2021/01/10 12:26:14;;;;;;;73.80;32.13;;;6.20;54.00;;;;;;5018077;28;20382;-83
2021/01/10 12:28:41;;;;;;;68.50;31.42;;;6.30;54.00;;;;;;5016399;28;20029;-84
2021/01/10 12:31:08;;;;;;;69.45;30.77;;;6.40;54.00;;;;;;5016203;28;20604;-82
2021/01/10 12:33:34;;;;;;;72.28;30.98;;;6.40;54.10;;;;;;5017469;28;20026;-82
2021/01/10 12:36:01;;;;;;;82.03;35.88;;;6.50;54.00;;;;;;5016410;28;20018;-81
2021/01/10 12:38:27;;;;;;;78.60;33.40;;;6.50;53.90;;;;;;5033189;28;20029;-81
2021/01/10 12:40:53;;;;;;;83.07;34.42;;;6.50;53.80;;;;;;5017746;28;20103;-83
2021/01/10 12:43:19;;;;;;;85.95;34.97;;;6.50;53.70;;;;;;5017254;28;20033;-80
2021/01/10 12:45:46;;;;;;;79.28;33.03;;;6.50;53.40;;;;;;5017474;28;20041;-82
2021/01/10 12:48:12;;;;;;;77.85;32.63;;;6.50;53.30;;;;;;5017095;28;20037;-83
2021/01/10 12:50:38;;;;;;;65.57;31.38;;;6.50;53.30;;;;;;5016274;28;20026;-84